Time,TemperatureF,DewpointF,PressureIn,WindDirection,WindDirectionDegrees,WindSpeedMPH,WindSpeedGustMPH,Humidity,HourlyPrecipIn,Conditions,Clouds,dailyrainin,SoftwareType,DateUTC
2013-01-14 00:14:00,30.3,26.9,30.28,NNE,29,1.0,7.0,87,0.00,,,0.00,VWS V14.01,2013-01-14 06:14:00,
2013-01-14 00:29:00,30.3,26.9,30.28,NNW,346,1.0,7.0,87,0.00,,,0.00,VWS V14.01,2013-01-14 06:29:00,
2013-01-14 00:44:00,30.2,26.8,30.27,NW,326,0.0,4.0,87,0.00,,,0.00,VWS V14.01,2013-01-14 06:44:00,
2013-01-14 00:59:00,29.8,26.7,30.27,NNW,340,0.0,7.0,88,0.00,,,0.00,VWS V14.01,2013-01-14 06:59:00,
2013-01-14 01:14:00,29.7,26.6,30.28,NNE,12,1.0,6.0,88,0.00,,,0.00,VWS V14.01,2013-01-14 07:14:00,
2013-01-14 01:29:00,29.5,26.1,30.28,NE,34,4.0,9.0,87,0.00,,,0.00,VWS V14.01,2013-01-14 07:29:00,
2013-01-14 01:44:00,29.2,25.5,30.30,North,4,1.0,9.0,86,0.00,,,0.00,VWS V14.01,2013-01-14 07:44:00,
2013-01-14 01:59:00,29.0,25.4,30.29,NW,314,2.0,8.0,86,0.00,,,0.00,VWS V14.01,2013-01-14 07:59:00,
2013-01-14 02:14:00,28.7,25.0,30.30,NW,318,0.0,7.0,86,0.00,,,0.00,VWS V14.01,2013-01-14 08:14:00,
2013-01-14 02:29:00,28.5,24.9,30.30,NE,34,2.0,8.0,86,0.00,,,0.00,VWS V14.01,2013-01-14 08:29:00,
2013-01-14 02:44:00,28.3,24.4,30.31,NW,326,3.0,12.0,85,0.00,,,0.00,VWS V14.01,2013-01-14 08:44:00,
2013-01-14 02:59:00,28.0,24.1,30.31,NE,47,1.0,12.0,85,0.00,,,0.00,VWS V14.01,2013-01-14 08:59:00,
2013-01-14 03:14:00,27.8,23.9,30.31,NE,51,0.0,10.0,85,0.00,,,0.00,VWS V14.01,2013-01-14 09:14:00,
2013-01-14 03:29:00,27.8,23.9,30.30,ENE,68,3.0,10.0,85,0.00,,,0.00,VWS V14.01,2013-01-14 09:29:00,
2013-01-14 03:44:00,27.8,24.2,30.31,North,354,0.0,9.0,86,0.00,,,0.00,VWS V14.01,2013-01-14 09:44:00,
2013-01-14 03:59:00,27.2,23.0,30.30,NNE,30,4.0,12.0,84,0.00,,,0.00,VWS V14.01,2013-01-14 09:59:00,
2013-01-14 04:14:00,26.9,23.0,30.31,ESE,105,1.0,10.0,85,0.00,,,0.00,VWS V14.01,2013-01-14 10:14:00,
2013-01-14 04:29:00,26.7,22.8,30.31,NW,323,5.0,12.0,85,0.00,,,0.00,VWS V14.01,2013-01-14 10:29:00,
2013-01-14 04:44:00,26.7,22.8,30.31,North,8,4.0,11.0,85,0.00,,,0.00,VWS V14.01,2013-01-14 10:44:00,
2013-01-14 04:59:00,26.7,22.8,30.31,NNW,333,3.0,8.0,85,0.00,,,0.00,VWS V14.01,2013-01-14 10:59:00,
2013-01-14 05:14:00,26.6,22.7,30.30,NE,41,2.0,8.0,85,0.00,,,0.00,VWS V14.01,2013-01-14 11:14:00,
2013-01-14 05:29:00,26.5,22.9,30.30,NE,36,5.0,9.0,86,0.00,,,0.00,VWS V14.01,2013-01-14 11:29:00,
2013-01-14 05:44:00,26.5,22.9,30.29,NW,309,3.0,10.0,86,0.00,,,0.00,VWS V14.01,2013-01-14 11:44:00,
2013-01-14 05:59:00,26.7,23.1,30.29,NNE,23,5.0,12.0,86,0.00,,,0.00,VWS V14.01,2013-01-14 11:59:00,
2013-01-14 06:14:00,26.7,23.1,30.28,NNW,339,1.0,8.0,86,0.00,,,0.00,VWS V14.01,2013-01-14 12:14:00,
2013-01-14 06:29:00,26.6,22.7,30.28,NNE,32,5.0,11.0,85,0.00,,,0.00,VWS V14.01,2013-01-14 12:29:00,
2013-01-14 06:44:00,26.7,23.4,30.28,NE,39,3.0,12.0,87,0.00,,,0.00,VWS V14.01,2013-01-14 12:44:00,
2013-01-14 06:59:00,26.5,22.9,30.28,NE,37,2.0,12.0,86,0.00,,,0.00,VWS V14.01,2013-01-14 12:59:00,
2013-01-14 07:14:00,25.9,22.0,30.28,East,80,4.0,13.0,85,0.00,,,0.00,VWS V14.01,2013-01-14 13:14:00,
2013-01-14 07:29:00,25.8,22.2,30.29,East,96,0.0,9.0,86,0.00,,,0.00,VWS V14.01,2013-01-14 13:29:00,
2013-01-14 07:44:00,26.0,22.4,30.31,NNE,25,2.0,8.0,86,0.00,,,0.00,VWS V14.01,2013-01-14 13:44:00,
2013-01-14 07:59:00,26.2,22.6,30.32,NNE,23,1.0,8.0,86,0.00,,,0.00,VWS V14.01,2013-01-14 13:59:00,
2013-01-14 08:14:00,26.2,22.3,30.33,NE,34,4.0,11.0,85,0.00,,,0.00,VWS V14.01,2013-01-14 14:14:00,
2013-01-14 08:29:00,26.5,22.6,30.35,NNW,335,2.0,10.0,85,0.00,,,0.00,VWS V14.01,2013-01-14 14:29:00,
2013-01-14 08:44:00,26.7,22.8,30.36,North,11,2.0,6.0,85,0.00,,,0.00,VWS V14.01,2013-01-14 14:44:00,
2013-01-14 08:59:00,27.1,23.2,30.35,NW,309,0.0,8.0,85,0.00,,,0.00,VWS V14.01,2013-01-14 14:59:00,
2013-01-14 09:14:00,27.2,23.0,30.35,NNE,29,1.0,9.0,84,0.00,,,0.00,VWS V14.01,2013-01-14 15:14:00,
2013-01-14 09:29:00,27.3,23.4,30.35,NNE,22,6.0,9.0,85,0.00,,,0.00,VWS V14.01,2013-01-14 15:29:00,
2013-01-14 09:44:00,27.5,23.0,30.35,NNE,19,2.0,9.0,83,0.00,,,0.00,VWS V14.01,2013-01-14 15:44:00,
2013-01-14 09:59:00,27.8,23.3,30.34,NE,49,0.0,9.0,83,0.00,,,0.00,VWS V14.01,2013-01-14 15:59:00,
2013-01-14 10:14:00,27.9,23.1,30.31,NE,49,6.0,9.0,82,0.00,,,0.00,VWS V14.01,2013-01-14 16:14:00,
2013-01-14 10:29:00,27.3,22.8,30.32,NNE,23,3.0,11.0,83,0.00,,,0.00,VWS V14.01,2013-01-14 16:29:00,
2013-01-14 10:44:00,27.3,23.1,30.41,North,9,0.0,7.0,84,0.00,,,0.00,VWS V14.01,2013-01-14 16:44:00,
2013-01-14 10:59:00,27.3,22.5,30.38,North,5,3.0,8.0,82,0.00,,,0.00,VWS V14.01,2013-01-14 16:59:00,
2013-01-14 11:14:00,27.7,22.6,30.38,WNW,290,1.0,15.0,81,0.00,,,0.00,VWS V14.01,2013-01-14 17:14:00,
2013-01-14 11:29:00,28.1,22.7,30.39,NW,323,3.0,12.0,80,0.00,,,0.00,VWS V14.01,2013-01-14 17:29:00,
2013-01-14 11:44:00,28.1,22.7,30.37,WSW,249,1.0,13.0,80,0.00,,,0.00,VWS V14.01,2013-01-14 17:44:00,
2013-01-14 11:59:00,28.1,23.0,30.40,NNW,334,0.0,10.0,81,0.00,,,0.00,VWS V14.01,2013-01-14 17:59:00,
2013-01-14 12:14:00,27.8,22.4,30.37,NE,56,5.0,12.0,80,0.00,,,0.00,VWS V14.01,2013-01-14 18:14:00,
2013-01-14 12:29:00,27.8,22.4,30.35,NE,43,2.0,11.0,80,0.00,,,0.00,VWS V14.01,2013-01-14 18:29:00,
2013-01-14 12:44:00,28.1,22.1,30.34,NNE,33,3.0,10.0,78,0.00,,,0.00,VWS V14.01,2013-01-14 18:44:00,
2013-01-14 12:59:00,28.3,22.9,30.31,NNW,343,3.0,10.0,80,0.00,,,0.00,VWS V14.01,2013-01-14 18:59:00,
2013-01-14 13:14:00,28.5,22.5,30.33,NE,37,6.0,13.0,78,0.00,,,0.00,VWS V14.01,2013-01-14 19:14:00,
2013-01-14 13:29:00,28.8,22.8,30.30,ENE,64,3.0,10.0,78,0.00,,,0.00,VWS V14.01,2013-01-14 19:29:00,
2013-01-14 13:44:00,28.9,23.2,30.33,NNE,27,6.0,11.0,79,0.00,,,0.00,VWS V14.01,2013-01-14 19:44:00,
2013-01-14 13:59:00,28.5,24.0,30.30,North,354,5.0,12.0,83,0.00,,,0.00,VWS V14.01,2013-01-14 19:59:00,
2013-01-14 14:14:00,27.9,24.0,30.28,NNE,22,4.0,14.0,85,0.00,,,0.00,VWS V14.01,2013-01-14 20:14:00,
2013-01-14 14:29:00,27.9,24.5,30.29,ENE,70,2.0,9.0,87,0.00,,,0.00,VWS V14.01,2013-01-14 20:29:00,
2013-01-14 14:44:00,28.3,25.2,30.29,NNE,30,4.0,9.0,88,0.00,,,0.00,VWS V14.01,2013-01-14 20:44:00,
2013-01-14 14:59:00,28.5,25.7,30.31,NNW,339,4.0,8.0,89,0.00,,,0.00,VWS V14.01,2013-01-14 20:59:00,
2013-01-14 15:14:00,28.5,25.7,30.31,NNE,29,0.0,5.0,89,0.00,,,0.00,VWS V14.01,2013-01-14 21:14:00,
2013-01-14 15:29:00,28.6,25.8,30.32,North,355,2.0,5.0,89,0.00,,,0.00,VWS V14.01,2013-01-14 21:29:00,
2013-01-14 15:44:00,28.8,26.0,30.33,NNW,344,2.0,4.0,89,0.00,,,0.00,VWS V14.01,2013-01-14 21:44:00,
2013-01-14 15:59:00,28.6,25.5,30.33,NE,34,2.0,5.0,88,0.00,,,0.00,VWS V14.01,2013-01-14 21:59:00,
2013-01-14 16:14:00,28.7,25.9,30.33,NE,49,1.0,5.0,89,0.00,,,0.00,VWS V14.01,2013-01-14 22:14:00,
2013-01-14 16:29:00,28.7,25.9,30.33,North,352,4.0,5.0,89,0.00,,,0.00,VWS V14.01,2013-01-14 22:29:00,
2013-01-14 16:44:00,28.5,25.7,30.33,East,95,2.0,8.0,89,0.00,,,0.00,VWS V14.01,2013-01-14 22:44:00,
2013-01-14 16:59:00,28.2,25.1,30.34,NE,49,1.0,6.0,88,0.00,,,0.00,VWS V14.01,2013-01-14 22:59:00,
2013-01-14 17:14:00,28.0,24.9,30.33,NE,54,1.0,5.0,88,0.00,,,0.00,VWS V14.01,2013-01-14 23:14:00,
2013-01-14 17:29:00,27.8,25.0,30.34,NNE,15,2.0,6.0,89,0.00,,,0.00,VWS V14.01,2013-01-14 23:29:00,
2013-01-14 17:44:00,27.7,24.9,30.33,NNE,20,1.0,4.0,89,0.00,,,0.00,VWS V14.01,2013-01-14 23:44:00,
2013-01-14 17:59:00,27.5,24.4,30.32,North,5,4.0,4.0,88,0.00,,,0.00,VWS V14.01,2013-01-14 23:59:00,
2013-01-14 18:14:00,27.4,24.3,30.33,ENE,57,3.0,4.0,88,0.00,,,0.00,VWS V14.01,2013-01-15 00:14:00,
2013-01-14 18:29:00,27.4,24.3,30.33,NE,51,0.0,3.0,88,0.00,,,0.00,VWS V14.01,2013-01-15 00:29:00,
2013-01-14 18:44:00,27.5,24.1,30.33,NNW,343,0.0,6.0,87,0.00,,,0.00,VWS V14.01,2013-01-15 00:44:00,
2013-01-14 18:59:00,27.5,24.1,30.32,NNE,32,1.0,5.0,87,0.00,,,0.00,VWS V14.01,2013-01-15 00:59:00,
2013-01-14 19:14:00,27.5,23.9,30.32,North,351,2.0,5.0,86,0.00,,,0.00,VWS V14.01,2013-01-15 01:14:00,
2013-01-14 19:29:00,27.5,23.9,30.31,NNE,16,2.0,4.0,86,0.00,,,0.00,VWS V14.01,2013-01-15 01:29:00,
2013-01-14 19:44:00,27.4,24.0,30.31,North,8,4.0,4.0,87,0.00,,,0.00,VWS V14.01,2013-01-15 01:44:00,
2013-01-14 19:59:00,27.4,24.0,30.31,NE,37,0.0,4.0,87,0.00,,,0.00,VWS V14.01,2013-01-15 01:59:00,
2013-01-14 20:14:00,27.3,24.0,30.30,NNW,327,2.0,6.0,87,0.00,,,0.00,VWS V14.01,2013-01-15 02:14:00,
2013-01-14 20:29:00,27.3,23.7,30.30,NNW,343,1.0,5.0,86,0.00,,,0.00,VWS V14.01,2013-01-15 02:29:00,
2013-01-14 20:44:00,27.2,23.6,30.29,NE,56,1.0,4.0,86,0.00,,,0.00,VWS V14.01,2013-01-15 02:44:00,
2013-01-14 20:59:00,27.2,23.6,30.29,North,11,3.0,5.0,86,0.00,,,0.00,VWS V14.01,2013-01-15 02:59:00,
2013-01-14 21:14:00,27.2,23.6,30.29,North,1,3.0,6.0,86,0.00,,,0.00,VWS V14.01,2013-01-15 03:14:00,
2013-01-14 21:29:00,27.2,23.6,30.28,NNE,26,3.0,8.0,86,0.00,,,0.00,VWS V14.01,2013-01-15 03:29:00,
2013-01-14 21:44:00,27.2,23.6,30.27,North,354,1.0,6.0,86,0.00,,,0.00,VWS V14.01,2013-01-15 03:44:00,
2013-01-14 21:59:00,27.1,23.5,30.27,NE,46,2.0,8.0,86,0.00,,,0.00,VWS V14.01,2013-01-15 03:59:00,
2013-01-14 22:14:00,27.1,23.5,30.28,WNW,300,1.0,8.0,86,0.00,,,0.00,VWS V14.01,2013-01-15 04:14:00,
2013-01-14 22:29:00,27.0,23.4,30.28,NW,325,1.0,9.0,86,0.00,,,0.00,VWS V14.01,2013-01-15 04:29:00,
2013-01-14 22:44:00,26.9,23.6,30.28,NNE,18,1.0,7.0,87,0.00,,,0.00,VWS V14.01,2013-01-15 04:44:00,
2013-01-14 22:59:00,26.9,23.3,30.28,NE,43,1.0,7.0,86,0.00,,,0.00,VWS V14.01,2013-01-15 04:59:00,
2013-01-14 23:14:00,26.7,23.1,30.28,ENE,65,2.0,6.0,86,0.00,,,0.00,VWS V14.01,2013-01-15 05:14:00,
2013-01-14 23:29:00,26.6,23.0,30.29,North,4,0.0,6.0,86,0.00,,,0.00,VWS V14.01,2013-01-15 05:29:00,
2013-01-14 23:44:00,26.4,23.1,30.28,NE,49,1.0,4.0,87,0.00,,,0.00,VWS V14.01,2013-01-15 05:44:00,
2013-01-14 23:59:00,26.3,23.0,30.28,North,6,1.0,5.0,87,0.00,,,0.00,VWS V14.01,2013-01-15 05:59:00,